Gerard, New Jersey
Current Conditions -  °F | °C
As of 2:18 AM on Wednesday 22 Oct 2014 (Local Time) from KFWN Reporting Station
Overcast Overcast  
Wind Chill: 56°   Ceiling: 1000
Heat Index: 56°   Visibility: 10mi
Dew Point: 50°   Wind: 8mph
Humidity: 80%   Direction: 40°NE
Pressure: 29.93"   Gusts: NA
Location:  41.1122°N, 74.4998°W
Report Text: KFWN 220618Z AUTO 04007KT 10SM OVC010 13/10 A2993 RMK AO2 T01330100
Loading
Personal Weather Stations






























Interactive Weather Map
Tropical Storm Tracking
New forecast layout! Learn more

10-Day Weather Forecast

Advertisements
Track Severe Weather on mobile